sensor_id;sensor_type;location;lat;lon;timestamp;P1;durP1;ratioP1;P2;durP2;ratioP2
35795;SDS011;21916;52.428;13.302;2022-09-03T00:01:43;3.55;;;1.30;;
35795;SDS011;21916;52.428;13.302;2022-09-03T00:04:31;5.28;;;1.27;;
35795;SDS011;21916;52.428;13.302;2022-09-03T00:10:07;3.08;;;1.20;;
35795;SDS011;21916;52.428;13.302;2022-09-03T00:12:39;3.88;;;1.10;;
35795;SDS011;21916;52.428;13.302;2022-09-03T00:15:18;5.15;;;1.70;;
35795;SDS011;21916;52.428;13.302;2022-09-03T00:18:30;2.25;;;1.35;;
35795;SDS011;21916;52.428;13.302;2022-09-03T00:20:39;3.38;;;1.23;;
35795;SDS011;21916;52.428;13.302;2022-09-03T00:23:32;2.30;;;1.15;;
35795;SDS011;21916;52.428;13.302;2022-09-03T00:29:02;3.33;;;1.40;;
35795;SDS011;21916;52.428;13.302;2022-09-03T00:34:11;3.83;;;1.20;;
35795;SDS011;21916;52.428;13.302;2022-09-03T00:36:45;2.97;;;1.35;;
35795;SDS011;21916;52.428;13.302;2022-09-03T00:39:14;3.53;;;1.13;;
35795;SDS011;21916;52.428;13.302;2022-09-03T00:44:24;1.73;;;1.40;;
35795;SDS011;21916;52.428;13.302;2022-09-03T01:00:14;3.47;;;0.93;;
35795;SDS011;21916;52.428;13.302;2022-09-03T01:05:42;4.95;;;1.40;;
35795;SDS011;21916;52.428;13.302;2022-09-03T01:13:49;3.83;;;1.20;;
35795;SDS011;21916;52.428;13.302;2022-09-03T01:18:59;2.78;;;1.27;;
35795;SDS011;21916;52.428;13.302;2022-09-03T01:30:07;3.67;;;1.27;;
35795;SDS011;21916;52.428;13.302;2022-09-03T01:44:36;2.00;;;1.00;;
35795;SDS011;21916;52.428;13.302;2022-09-03T01:46:54;2.90;;;1.25;;
35795;SDS011;21916;52.428;13.302;2022-09-03T01:55:38;1.95;;;1.15;;
35795;SDS011;21916;52.428;13.302;2022-09-03T02:00:56;5.30;;;1.13;;
35795;SDS011;21916;52.428;13.302;2022-09-03T02:03:34;2.70;;;0.90;;
35795;SDS011;21916;52.428;13.302;2022-09-03T02:06:04;2.70;;;1.00;;
35795;SDS011;21916;52.428;13.302;2022-09-03T02:08:32;4.72;;;2.45;;
35795;SDS011;21916;52.428;13.302;2022-09-03T02:10:58;2.45;;;1.10;;
35795;SDS011;21916;52.428;13.302;2022-09-03T02:16:12;2.70;;;1.20;;
35795;SDS011;21916;52.428;13.302;2022-09-03T02:18:43;2.92;;;0.90;;
35795;SDS011;21916;52.428;13.302;2022-09-03T02:21:15;1.55;;;0.90;;
35795;SDS011;21916;52.428;13.302;2022-09-03T02:23:44;4.53;;;1.33;;
35795;SDS011;21916;52.428;13.302;2022-09-03T02:26:11;4.43;;;1.52;;
35795;SDS011;21916;52.428;13.302;2022-09-03T02:28:38;4.40;;;1.27;;
35795;SDS011;21916;52.428;13.302;2022-09-03T02:31:04;3.10;;;0.95;;
35795;SDS011;21916;52.428;13.302;2022-09-03T02:33:38;2.38;;;0.95;;
35795;SDS011;21916;52.428;13.302;2022-09-03T02:36:08;2.22;;;1.02;;
35795;SDS011;21916;52.428;13.302;2022-09-03T02:38:35;7.22;;;1.73;;
35795;SDS011;21916;52.428;13.302;2022-09-03T02:41:01;5.13;;;1.13;;
35795;SDS011;21916;52.428;13.302;2022-09-03T02:43:35;3.80;;;1.00;;
35795;SDS011;21916;52.428;13.302;2022-09-03T02:46:08;2.38;;;1.02;;
35795;SDS011;21916;52.428;13.302;2022-09-03T02:48:45;4.80;;;1.27;;
35795;SDS011;21916;52.428;13.302;2022-09-03T02:51:11;4.35;;;1.30;;
35795;SDS011;21916;52.428;13.302;2022-09-03T02:53:37;3.13;;;1.67;;
35795;SDS011;21916;52.428;13.302;2022-09-03T02:56:03;3.03;;;1.38;;
35795;SDS011;21916;52.428;13.302;2022-09-03T02:58:30;3.42;;;1.30;;
35795;SDS011;21916;52.428;13.302;2022-09-03T03:00:56;3.38;;;1.70;;
35795;SDS011;21916;52.428;13.302;2022-09-03T03:03:22;3.65;;;1.52;;
35795;SDS011;21916;52.428;13.302;2022-09-03T03:05:52;2.10;;;1.10;;
35795;SDS011;21916;52.428;13.302;2022-09-03T03:08:21;1.95;;;1.33;;
35795;SDS011;21916;52.428;13.302;2022-09-03T03:10:54;3.30;;;1.15;;
35795;SDS011;21916;52.428;13.302;2022-09-03T03:13:23;3.00;;;1.27;;
35795;SDS011;21916;52.428;13.302;2022-09-03T03:15:49;3.53;;;1.30;;
35795;SDS011;21916;52.428;13.302;2022-09-03T03:18:15;2.88;;;1.10;;
35795;SDS011;21916;52.428;13.302;2022-09-03T03:20:42;5.82;;;1.50;;
35795;SDS011;21916;52.428;13.302;2022-09-03T03:23:08;4.82;;;1.30;;
35795;SDS011;21916;52.428;13.302;2022-09-03T03:25:35;2.15;;;1.25;;
35795;SDS011;21916;52.428;13.302;2022-09-03T03:28:02;4.72;;;1.27;;
35795;SDS011;21916;52.428;13.302;2022-09-03T03:30:29;4.68;;;1.23;;
35795;SDS011;21916;52.428;13.302;2022-09-03T03:32:56;1.67;;;1.02;;
35795;SDS011;21916;52.428;13.302;2022-09-03T03:35:22;2.05;;;1.30;;
35795;SDS011;21916;52.428;13.302;2022-09-03T03:37:49;7.30;;;1.30;;
35795;SDS011;21916;52.428;13.302;2022-09-03T03:40:14;1.73;;;1.20;;
35795;SDS011;21916;52.428;13.302;2022-09-03T03:42:41;2.00;;;1.08;;
35795;SDS011;21916;52.428;13.302;2022-09-03T03:45:07;2.95;;;1.40;;
35795;SDS011;21916;52.428;13.302;2022-09-03T03:47:36;4.38;;;1.65;;
35795;SDS011;21916;52.428;13.302;2022-09-03T03:50:02;2.63;;;0.90;;
35795;SDS011;21916;52.428;13.302;2022-09-03T03:52:29;3.53;;;1.30;;
35795;SDS011;21916;52.428;13.302;2022-09-03T03:54:55;3.38;;;1.73;;
35795;SDS011;21916;52.428;13.302;2022-09-03T03:57:21;4.38;;;1.30;;
35795;SDS011;21916;52.428;13.302;2022-09-03T03:59:47;5.13;;;1.60;;
35795;SDS011;21916;52.428;13.302;2022-09-03T04:02:13;3.13;;;1.20;;
35795;SDS011;21916;52.428;13.302;2022-09-03T04:04:40;3.65;;;1.65;;
35795;SDS011;21916;52.428;13.302;2022-09-03T04:07:06;3.17;;;1.50;;
35795;SDS011;21916;52.428;13.302;2022-09-03T04:09:32;3.42;;;1.60;;
35795;SDS011;21916;52.428;13.302;2022-09-03T04:11:59;6.40;;;1.33;;
35795;SDS011;21916;52.428;13.302;2022-09-03T04:14:25;1.83;;;1.13;;
35795;SDS011;21916;52.428;13.302;2022-09-03T04:16:52;4.72;;;1.25;;
35795;SDS011;21916;52.428;13.302;2022-09-03T04:19:18;7.18;;;1.70;;
35795;SDS011;21916;52.428;13.302;2022-09-03T04:21:45;2.13;;;1.33;;
35795;SDS011;21916;52.428;13.302;2022-09-03T04:24:11;3.33;;;1.60;;
35795;SDS011;21916;52.428;13.302;2022-09-03T04:26:37;1.70;;;1.40;;
35795;SDS011;21916;52.428;13.302;2022-09-03T04:29:05;2.78;;;1.20;;
35795;SDS011;21916;52.428;13.302;2022-09-03T04:31:33;4.90;;;1.60;;
35795;SDS011;21916;52.428;13.302;2022-09-03T04:34:00;4.00;;;1.50;;
35795;SDS011;21916;52.428;13.302;2022-09-03T04:36:27;2.83;;;1.40;;
35795;SDS011;21916;52.428;13.302;2022-09-03T04:38:56;5.03;;;1.50;;
35795;SDS011;21916;52.428;13.302;2022-09-03T04:41:24;5.80;;;1.80;;
35795;SDS011;21916;52.428;13.302;2022-09-03T04:43:52;3.50;;;1.48;;
35795;SDS011;21916;52.428;13.302;2022-09-03T04:46:20;2.75;;;1.55;;
35795;SDS011;21916;52.428;13.302;2022-09-03T04:48:48;2.90;;;1.30;;
35795;SDS011;21916;52.428;13.302;2022-09-03T04:51:17;4.20;;;1.85;;
35795;SDS011;21916;52.428;13.302;2022-09-03T04:53:52;4.38;;;1.35;;
35795;SDS011;21916;52.428;13.302;2022-09-03T04:56:23;2.03;;;1.50;;
35795;SDS011;21916;52.428;13.302;2022-09-03T04:58:55;4.38;;;2.20;;
35795;SDS011;21916;52.428;13.302;2022-09-03T05:01:23;5.03;;;1.95;;
35795;SDS011;21916;52.428;13.302;2022-09-03T05:03:51;3.50;;;1.90;;
35795;SDS011;21916;52.428;13.302;2022-09-03T05:06:17;5.53;;;1.80;;
35795;SDS011;21916;52.428;13.302;2022-09-03T05:08:46;2.35;;;1.63;;
35795;SDS011;21916;52.428;13.302;2022-09-03T05:11:13;2.53;;;1.40;;
35795;SDS011;21916;52.428;13.302;2022-09-03T05:13:39;3.75;;;1.75;;
35795;SDS011;21916;52.428;13.302;2022-09-03T05:16:07;3.03;;;2.05;;
35795;SDS011;21916;52.428;13.302;2022-09-03T05:18:35;6.20;;;1.80;;
35795;SDS011;21916;52.428;13.302;2022-09-03T05:21:02;3.97;;;1.80;;
35795;SDS011;21916;52.428;13.302;2022-09-03T05:23:31;4.50;;;2.42;;
35795;SDS011;21916;52.428;13.302;2022-09-03T05:26:01;2.58;;;1.50;;
35795;SDS011;21916;52.428;13.302;2022-09-03T05:28:30;4.80;;;2.08;;
35795;SDS011;21916;52.428;13.302;2022-09-03T05:30:57;3.08;;;1.67;;
35795;SDS011;21916;52.428;13.302;2022-09-03T05:33:24;2.85;;;1.85;;
35795;SDS011;21916;52.428;13.302;2022-09-03T05:35:49;2.78;;;1.52;;
35795;SDS011;21916;52.428;13.302;2022-09-03T05:38:18;8.60;;;1.92;;
35795;SDS011;21916;52.428;13.302;2022-09-03T05:40:43;4.32;;;1.75;;
35795;SDS011;21916;52.428;13.302;2022-09-03T05:43:09;3.22;;;1.73;;
35795;SDS011;21916;52.428;13.302;2022-09-03T05:45:35;5.25;;;2.50;;
35795;SDS011;21916;52.428;13.302;2022-09-03T05:48:01;4.65;;;2.00;;
35795;SDS011;21916;52.428;13.302;2022-09-03T05:50:27;3.67;;;1.80;;
35795;SDS011;21916;52.428;13.302;2022-09-03T05:52:53;3.70;;;1.85;;
35795;SDS011;21916;52.428;13.302;2022-09-03T05:55:19;2.90;;;1.73;;
35795;SDS011;21916;52.428;13.302;2022-09-03T05:57:50;4.10;;;1.60;;
35795;SDS011;21916;52.428;13.302;2022-09-03T06:00:16;4.80;;;1.85;;
35795;SDS011;21916;52.428;13.302;2022-09-03T06:02:50;6.00;;;2.00;;
35795;SDS011;21916;52.428;13.302;2022-09-03T06:05:17;3.20;;;1.85;;
35795;SDS011;21916;52.428;13.302;2022-09-03T06:07:43;4.38;;;1.95;;
35795;SDS011;21916;52.428;13.302;2022-09-03T06:10:13;2.90;;;1.48;;
35795;SDS011;21916;52.428;13.302;2022-09-03T06:12:41;3.70;;;1.60;;
35795;SDS011;21916;52.428;13.302;2022-09-03T06:15:09;2.60;;;1.63;;
35795;SDS011;21916;52.428;13.302;2022-09-03T06:17:36;3.42;;;1.70;;
35795;SDS011;21916;52.428;13.302;2022-09-03T06:20:02;4.88;;;1.83;;
35795;SDS011;21916;52.428;13.302;2022-09-03T06:22:29;3.30;;;1.55;;
35795;SDS011;21916;52.428;13.302;2022-09-03T06:24:58;4.53;;;1.75;;
35795;SDS011;21916;52.428;13.302;2022-09-03T06:27:24;6.47;;;1.80;;
35795;SDS011;21916;52.428;13.302;2022-09-03T06:29:52;3.22;;;1.70;;
35795;SDS011;21916;52.428;13.302;2022-09-03T06:32:19;4.93;;;1.60;;
35795;SDS011;21916;52.428;13.302;2022-09-03T06:34:44;5.40;;;1.60;;
35795;SDS011;21916;52.428;13.302;2022-09-03T06:37:10;3.33;;;1.58;;
35795;SDS011;21916;52.428;13.302;2022-09-03T06:39:36;6.15;;;1.95;;
35795;SDS011;21916;52.428;13.302;2022-09-03T06:42:02;4.65;;;1.80;;
35795;SDS011;21916;52.428;13.302;2022-09-03T06:44:34;2.08;;;1.20;;
35795;SDS011;21916;52.428;13.302;2022-09-03T06:47:00;5.43;;;1.58;;
35795;SDS011;21916;52.428;13.302;2022-09-03T06:49:26;6.68;;;1.80;;
35795;SDS011;21916;52.428;13.302;2022-09-03T06:51:52;3.22;;;1.63;;
35795;SDS011;21916;52.428;13.302;2022-09-03T06:54:18;2.40;;;1.55;;
35795;SDS011;21916;52.428;13.302;2022-09-03T06:56:44;4.65;;;1.63;;
35795;SDS011;21916;52.428;13.302;2022-09-03T06:59:11;2.45;;;1.58;;
35795;SDS011;21916;52.428;13.302;2022-09-03T07:01:38;4.78;;;1.75;;
35795;SDS011;21916;52.428;13.302;2022-09-03T07:04:05;3.13;;;1.35;;
35795;SDS011;21916;52.428;13.302;2022-09-03T07:06:34;2.92;;;1.60;;
35795;SDS011;21916;52.428;13.302;2022-09-03T07:09:05;6.85;;;2.58;;
35795;SDS011;21916;52.428;13.302;2022-09-03T07:11:32;8.15;;;1.85;;
35795;SDS011;21916;52.428;13.302;2022-09-03T07:14:00;2.30;;;1.45;;
35795;SDS011;21916;52.428;13.302;2022-09-03T07:16:32;4.07;;;1.58;;
35795;SDS011;21916;52.428;13.302;2022-09-03T07:19:02;5.25;;;1.60;;
35795;SDS011;21916;52.428;13.302;2022-09-03T07:21:30;3.05;;;1.90;;
35795;SDS011;21916;52.428;13.302;2022-09-03T07:23:58;7.72;;;2.33;;
35795;SDS011;21916;52.428;13.302;2022-09-03T07:26:25;4.72;;;1.95;;
35795;SDS011;21916;52.428;13.302;2022-09-03T07:28:53;3.60;;;1.70;;
35795;SDS011;21916;52.428;13.302;2022-09-03T07:31:21;2.15;;;1.33;;
35795;SDS011;21916;52.428;13.302;2022-09-03T07:33:52;2.95;;;1.55;;
35795;SDS011;21916;52.428;13.302;2022-09-03T07:36:25;3.83;;;1.60;;
35795;SDS011;21916;52.428;13.302;2022-09-03T07:38:56;4.75;;;1.55;;
35795;SDS011;21916;52.428;13.302;2022-09-03T07:41:23;3.65;;;1.65;;
35795;SDS011;21916;52.428;13.302;2022-09-03T07:43:51;7.05;;;2.03;;
35795;SDS011;21916;52.428;13.302;2022-09-03T07:46:21;4.75;;;1.33;;
35795;SDS011;21916;52.428;13.302;2022-09-03T07:48:49;2.50;;;1.58;;
35795;SDS011;21916;52.428;13.302;2022-09-03T07:51:17;2.97;;;1.50;;
35795;SDS011;21916;52.428;13.302;2022-09-03T07:53:45;2.83;;;1.33;;
35795;SDS011;21916;52.428;13.302;2022-09-03T07:56:13;6.25;;;1.63;;
35795;SDS011;21916;52.428;13.302;2022-09-03T07:58:40;2.58;;;1.52;;
35795;SDS011;21916;52.428;13.302;2022-09-03T08:01:10;3.78;;;1.80;;
35795;SDS011;21916;52.428;13.302;2022-09-03T08:03:37;7.10;;;2.30;;
35795;SDS011;21916;52.428;13.302;2022-09-03T08:06:07;4.25;;;1.83;;
35795;SDS011;21916;52.428;13.302;2022-09-03T08:08:34;2.92;;;1.13;;
35795;SDS011;21916;52.428;13.302;2022-09-03T08:11:07;2.08;;;1.08;;
35795;SDS011;21916;52.428;13.302;2022-09-03T08:13:36;3.50;;;1.27;;
35795;SDS011;21916;52.428;13.302;2022-09-03T08:16:02;3.67;;;1.17;;
35795;SDS011;21916;52.428;13.302;2022-09-03T08:18:28;5.05;;;1.60;;
35795;SDS011;21916;52.428;13.302;2022-09-03T08:20:58;1.83;;;1.23;;
35795;SDS011;21916;52.428;13.302;2022-09-03T08:23:24;4.03;;;1.73;;
35795;SDS011;21916;52.428;13.302;2022-09-03T08:25:57;5.43;;;1.58;;
35795;SDS011;21916;52.428;13.302;2022-09-03T08:28:27;2.35;;;1.30;;
35795;SDS011;21916;52.428;13.302;2022-09-03T08:30:53;3.30;;;1.50;;
35795;SDS011;21916;52.428;13.302;2022-09-03T08:33:19;2.20;;;1.20;;
35795;SDS011;21916;52.428;13.302;2022-09-03T08:36:05;3.13;;;1.42;;
35795;SDS011;21916;52.428;13.302;2022-09-03T08:38:33;3.85;;;1.55;;
35795;SDS011;21916;52.428;13.302;2022-09-03T08:46:20;3.67;;;1.30;;
35795;SDS011;21916;52.428;13.302;2022-09-03T08:48:48;5.03;;;1.55;;
35795;SDS011;21916;52.428;13.302;2022-09-03T08:51:14;3.00;;;1.40;;
35795;SDS011;21916;52.428;13.302;2022-09-03T08:53:44;3.13;;;1.30;;
35795;SDS011;21916;52.428;13.302;2022-09-03T08:56:17;2.40;;;1.58;;
35795;SDS011;21916;52.428;13.302;2022-09-03T08:58:49;3.47;;;1.65;;
35795;SDS011;21916;52.428;13.302;2022-09-03T09:01:25;4.07;;;1.60;;
35795;SDS011;21916;52.428;13.302;2022-09-03T09:04:26;1.77;;;1.30;;
35795;SDS011;21916;52.428;13.302;2022-09-03T09:22:56;5.32;;;1.42;;
35795;SDS011;21916;52.428;13.302;2022-09-03T09:25:32;3.70;;;1.45;;
35795;SDS011;21916;52.428;13.302;2022-09-03T09:28:11;3.08;;;1.33;;
35795;SDS011;21916;52.428;13.302;2022-09-03T09:30:41;4.80;;;1.50;;
35795;SDS011;21916;52.428;13.302;2022-09-03T09:33:08;4.00;;;1.35;;
35795;SDS011;21916;52.428;13.302;2022-09-03T09:35:34;3.17;;;1.25;;
35795;SDS011;21916;52.428;13.302;2022-09-03T09:38:00;2.80;;;1.08;;
35795;SDS011;21916;52.428;13.302;2022-09-03T09:45:44;3.17;;;1.30;;
35795;SDS011;21916;52.428;13.302;2022-09-03T09:48:25;4.97;;;1.38;;
35795;SDS011;21916;52.428;13.302;2022-09-03T09:51:03;1.35;;;1.10;;
35795;SDS011;21916;52.428;13.302;2022-09-03T09:53:37;2.47;;;1.35;;
35795;SDS011;21916;52.428;13.302;2022-09-03T09:56:03;3.55;;;1.30;;
35795;SDS011;21916;52.428;13.302;2022-09-03T09:58:31;1.30;;;0.88;;
35795;SDS011;21916;52.428;13.302;2022-09-03T10:03:29;3.85;;;1.00;;
35795;SDS011;21916;52.428;13.302;2022-09-03T10:06:05;5.60;;;1.20;;
35795;SDS011;21916;52.428;13.302;2022-09-03T10:08:54;4.10;;;1.10;;
35795;SDS011;21916;52.428;13.302;2022-09-03T10:11:34;2.50;;;1.17;;
35795;SDS011;21916;52.428;13.302;2022-09-03T10:14:05;5.13;;;1.13;;
35795;SDS011;21916;52.428;13.302;2022-09-03T10:19:10;6.43;;;1.00;;
35795;SDS011;21916;52.428;13.302;2022-09-03T10:26:54;2.22;;;1.23;;
35795;SDS011;21916;52.428;13.302;2022-09-03T10:29:22;1.95;;;1.10;;
35795;SDS011;21916;52.428;13.302;2022-09-03T10:37:39;1.45;;;1.00;;
35795;SDS011;21916;52.428;13.302;2022-09-03T10:45:31;3.33;;;1.23;;
35795;SDS011;21916;52.428;13.302;2022-09-03T10:50:51;3.58;;;1.00;;
35795;SDS011;21916;52.428;13.302;2022-09-03T10:56:20;1.90;;;0.98;;
35795;SDS011;21916;52.428;13.302;2022-09-03T11:06:56;1.60;;;0.90;;
35795;SDS011;21916;52.428;13.302;2022-09-03T11:12:30;1.48;;;1.00;;
35795;SDS011;21916;52.428;13.302;2022-09-03T11:15:05;1.83;;;0.90;;
35795;SDS011;21916;52.428;13.302;2022-09-03T11:17:37;2.17;;;0.80;;
35795;SDS011;21916;52.428;13.302;2022-09-03T11:20:25;2.28;;;0.88;;
35795;SDS011;21916;52.428;13.302;2022-09-03T11:22:53;2.28;;;1.00;;
35795;SDS011;21916;52.428;13.302;2022-09-03T11:25:24;1.33;;;1.13;;
35795;SDS011;21916;52.428;13.302;2022-09-03T11:33:43;3.33;;;1.08;;
35795;SDS011;21916;52.428;13.302;2022-09-03T11:36:30;2.22;;;0.82;;
35795;SDS011;21916;52.428;13.302;2022-09-03T11:39:11;4.13;;;1.10;;
35795;SDS011;21916;52.428;13.302;2022-09-03T11:41:57;3.00;;;1.00;;
35795;SDS011;21916;52.428;13.302;2022-09-03T11:44:38;2.05;;;0.98;;
35795;SDS011;21916;52.428;13.302;2022-09-03T11:47:40;2.03;;;0.88;;
35795;SDS011;21916;52.428;13.302;2022-09-03T11:50:07;1.55;;;0.90;;
35795;SDS011;21916;52.428;13.302;2022-09-03T11:52:44;1.75;;;0.90;;
35795;SDS011;21916;52.428;13.302;2022-09-03T11:55:11;2.65;;;1.00;;
35795;SDS011;21916;52.428;13.302;2022-09-03T11:57:40;2.05;;;1.00;;
35795;SDS011;21916;52.428;13.302;2022-09-03T12:02:48;1.92;;;0.80;;
35795;SDS011;21916;52.428;13.302;2022-09-03T12:05:25;2.13;;;0.90;;
35795;SDS011;21916;52.428;13.302;2022-09-03T12:16:37;3.15;;;1.17;;
35795;SDS011;21916;52.428;13.302;2022-09-03T12:22:04;1.45;;;0.98;;
35795;SDS011;21916;52.428;13.302;2022-09-03T12:24:30;6.22;;;1.45;;
35795;SDS011;21916;52.428;13.302;2022-09-03T12:27:00;3.15;;;1.10;;
35795;SDS011;21916;52.428;13.302;2022-09-03T12:29:29;4.38;;;1.08;;
35795;SDS011;21916;52.428;13.302;2022-09-03T12:32:04;4.03;;;1.60;;
35795;SDS011;21916;52.428;13.302;2022-09-03T12:34:31;2.35;;;1.00;;
35795;SDS011;21916;52.428;13.302;2022-09-03T12:36:57;2.03;;;1.13;;
35795;SDS011;21916;52.428;13.302;2022-09-03T12:39:24;1.52;;;0.90;;
35795;SDS011;21916;52.428;13.302;2022-09-03T12:42:01;2.50;;;1.20;;
35795;SDS011;21916;52.428;13.302;2022-09-03T12:44:30;1.73;;;1.00;;
35795;SDS011;21916;52.428;13.302;2022-09-03T12:47:13;2.58;;;1.05;;
35795;SDS011;21916;52.428;13.302;2022-09-03T12:49:46;3.92;;;1.50;;
35795;SDS011;21916;52.428;13.302;2022-09-03T12:52:30;2.35;;;1.15;;
35795;SDS011;21916;52.428;13.302;2022-09-03T12:57:47;1.80;;;1.17;;
35795;SDS011;21916;52.428;13.302;2022-09-03T13:00:17;5.57;;;1.30;;
35795;SDS011;21916;52.428;13.302;2022-09-03T13:02:51;6.18;;;1.30;;
35795;SDS011;21916;52.428;13.302;2022-09-03T13:08:25;1.75;;;1.10;;
35795;SDS011;21916;52.428;13.302;2022-09-03T13:10:56;3.03;;;1.08;;
35795;SDS011;21916;52.428;13.302;2022-09-03T13:13:30;2.75;;;0.93;;
35795;SDS011;21916;52.428;13.302;2022-09-03T13:47:01;3.72;;;1.35;;
35795;SDS011;21916;52.428;13.302;2022-09-03T13:52:38;3.95;;;1.20;;
35795;SDS011;21916;52.428;13.302;2022-09-03T13:58:24;2.47;;;0.90;;
35795;SDS011;21916;52.428;13.302;2022-09-03T14:01:05;3.83;;;1.00;;
35795;SDS011;21916;52.428;13.302;2022-09-03T14:03:51;4.57;;;1.00;;
35795;SDS011;21916;52.428;13.302;2022-09-03T14:14:39;4.82;;;1.30;;
35795;SDS011;21916;52.428;13.302;2022-09-03T14:19:51;2.67;;;1.17;;
35795;SDS011;21916;52.428;13.302;2022-09-03T14:25:17;2.97;;;0.73;;
35795;SDS011;21916;52.428;13.302;2022-09-03T14:27:45;3.65;;;1.50;;
35795;SDS011;21916;52.428;13.302;2022-09-03T14:46:29;2.13;;;1.45;;
35795;SDS011;21916;52.428;13.302;2022-09-03T14:52:14;1.98;;;1.52;;
35795;SDS011;21916;52.428;13.302;2022-09-03T14:57:52;4.25;;;1.35;;
35795;SDS011;21916;52.428;13.302;2022-09-03T15:00:30;5.20;;;1.40;;
35795;SDS011;21916;52.428;13.302;2022-09-03T15:06:13;1.73;;;1.30;;
35795;SDS011;21916;52.428;13.302;2022-09-03T15:11:32;2.05;;;1.48;;
35795;SDS011;21916;52.428;13.302;2022-09-03T15:14:09;5.63;;;1.20;;
35795;SDS011;21916;52.428;13.302;2022-09-03T15:16:51;1.73;;;1.08;;
35795;SDS011;21916;52.428;13.302;2022-09-03T15:22:18;4.43;;;2.00;;
35795;SDS011;21916;52.428;13.302;2022-09-03T15:28:26;2.33;;;1.60;;
35795;SDS011;21916;52.428;13.302;2022-09-03T15:30:41;2.22;;;1.40;;
35795;SDS011;21916;52.428;13.302;2022-09-03T15:33:22;2.53;;;1.45;;
35795;SDS011;21916;52.428;13.302;2022-09-03T15:36:18;2.25;;;1.35;;
35795;SDS011;21916;52.428;13.302;2022-09-03T15:39:09;2.85;;;1.58;;
35795;SDS011;21916;52.428;13.302;2022-09-03T15:41:45;5.55;;;1.58;;
35795;SDS011;21916;52.428;13.302;2022-09-03T15:44:41;3.45;;;1.90;;
35795;SDS011;21916;52.428;13.302;2022-09-03T15:47:27;3.13;;;1.83;;
35795;SDS011;21916;52.428;13.302;2022-09-03T15:50:09;1.52;;;1.33;;
35795;SDS011;21916;52.428;13.302;2022-09-03T15:53:02;6.22;;;1.58;;
35795;SDS011;21916;52.428;13.302;2022-09-03T15:56:00;5.45;;;1.60;;
35795;SDS011;21916;52.428;13.302;2022-09-03T15:58:55;5.15;;;1.73;;
35795;SDS011;21916;52.428;13.302;2022-09-03T16:15:03;2.45;;;1.85;;
35795;SDS011;21916;52.428;13.302;2022-09-03T16:17:49;2.42;;;1.40;;
35795;SDS011;21916;52.428;13.302;2022-09-03T16:28:46;5.35;;;2.30;;
35795;SDS011;21916;52.428;13.302;2022-09-03T16:42:46;6.25;;;1.30;;
35795;SDS011;21916;52.428;13.302;2022-09-03T16:57:14;3.40;;;1.70;;
35795;SDS011;21916;52.428;13.302;2022-09-03T16:59:35;3.40;;;1.60;;
35795;SDS011;21916;52.428;13.302;2022-09-03T17:02:11;3.78;;;1.83;;
35795;SDS011;21916;52.428;13.302;2022-09-03T17:07:53;2.70;;;1.70;;
35795;SDS011;21916;52.428;13.302;2022-09-03T17:25:35;6.32;;;2.55;;
35795;SDS011;21916;52.428;13.302;2022-09-03T17:28:17;3.40;;;2.13;;
35795;SDS011;21916;52.428;13.302;2022-09-03T17:30:54;3.15;;;2.22;;
35795;SDS011;21916;52.428;13.302;2022-09-03T17:33:32;6.43;;;1.95;;
35795;SDS011;21916;52.428;13.302;2022-09-03T17:36:11;5.10;;;2.45;;
35795;SDS011;21916;52.428;13.302;2022-09-03T17:39:29;6.57;;;2.50;;
35795;SDS011;21916;52.428;13.302;2022-09-03T17:41:50;4.47;;;2.17;;
35795;SDS011;21916;52.428;13.302;2022-09-03T17:44:37;5.80;;;2.30;;
35795;SDS011;21916;52.428;13.302;2022-09-03T17:49:47;5.70;;;2.28;;
35795;SDS011;21916;52.428;13.302;2022-09-03T17:55:01;6.10;;;2.45;;
35795;SDS011;21916;52.428;13.302;2022-09-03T17:57:47;5.28;;;2.75;;
35795;SDS011;21916;52.428;13.302;2022-09-03T18:03:53;4.38;;;2.28;;
35795;SDS011;21916;52.428;13.302;2022-09-03T18:06:27;6.18;;;2.42;;
35795;SDS011;21916;52.428;13.302;2022-09-03T18:12:02;3.22;;;2.40;;
35795;SDS011;21916;52.428;13.302;2022-09-03T18:14:33;3.65;;;2.10;;
35795;SDS011;21916;52.428;13.302;2022-09-03T18:19:43;6.97;;;2.88;;
35795;SDS011;21916;52.428;13.302;2022-09-03T18:25:44;5.35;;;2.45;;
35795;SDS011;21916;52.428;13.302;2022-09-03T18:28:37;4.55;;;2.60;;
35795;SDS011;21916;52.428;13.302;2022-09-03T18:31:26;5.57;;;2.67;;
35795;SDS011;21916;52.428;13.302;2022-09-03T18:34:11;6.40;;;2.72;;
35795;SDS011;21916;52.428;13.302;2022-09-03T18:36:56;5.88;;;2.47;;
35795;SDS011;21916;52.428;13.302;2022-09-03T18:39:43;7.35;;;2.70;;
35795;SDS011;21916;52.428;13.302;2022-09-03T18:48:56;5.97;;;2.88;;
35795;SDS011;21916;52.428;13.302;2022-09-03T18:55:14;4.85;;;2.75;;
35795;SDS011;21916;52.428;13.302;2022-09-03T18:58:14;6.35;;;2.42;;
35795;SDS011;21916;52.428;13.302;2022-09-03T19:07:10;5.03;;;2.78;;
35795;SDS011;21916;52.428;13.302;2022-09-03T19:16:15;3.58;;;2.45;;
35795;SDS011;21916;52.428;13.302;2022-09-03T19:22:15;6.15;;;2.50;;
35795;SDS011;21916;52.428;13.302;2022-09-03T19:25:11;5.63;;;2.63;;
35795;SDS011;21916;52.428;13.302;2022-09-03T19:30:53;5.47;;;2.67;;
35795;SDS011;21916;52.428;13.302;2022-09-03T19:34:26;4.65;;;2.22;;
35795;SDS011;21916;52.428;13.302;2022-09-03T19:54:03;6.18;;;2.97;;
35795;SDS011;21916;52.428;13.302;2022-09-03T19:56:50;5.35;;;2.72;;
35795;SDS011;21916;52.428;13.302;2022-09-03T19:59:40;6.97;;;3.17;;
35795;SDS011;21916;52.428;13.302;2022-09-03T20:02:37;4.53;;;2.28;;
35795;SDS011;21916;52.428;13.302;2022-09-03T20:05:23;5.25;;;2.70;;
35795;SDS011;21916;52.428;13.302;2022-09-03T20:08:08;6.85;;;2.30;;
35795;SDS011;21916;52.428;13.302;2022-09-03T20:10:56;5.07;;;2.40;;
35795;SDS011;21916;52.428;13.302;2022-09-03T20:13:26;8.77;;;2.13;;
35795;SDS011;21916;52.428;13.302;2022-09-03T20:16:14;3.05;;;1.92;;
35795;SDS011;21916;52.428;13.302;2022-09-03T20:30:18;5.03;;;2.80;;
35795;SDS011;21916;52.428;13.302;2022-09-03T20:47:29;5.10;;;2.17;;
35795;SDS011;21916;52.428;13.302;2022-09-03T20:50:39;3.35;;;1.98;;
35795;SDS011;21916;52.428;13.302;2022-09-03T20:55:57;5.22;;;2.03;;
35795;SDS011;21916;52.428;13.302;2022-09-03T21:01:07;4.45;;;2.33;;
35795;SDS011;21916;52.428;13.302;2022-09-03T21:09:49;4.03;;;2.67;;
35795;SDS011;21916;52.428;13.302;2022-09-03T21:12:30;7.50;;;2.45;;
35795;SDS011;21916;52.428;13.302;2022-09-03T21:15:27;6.50;;;2.63;;
35795;SDS011;21916;52.428;13.302;2022-09-03T21:18:34;6.00;;;2.15;;
35795;SDS011;21916;52.428;13.302;2022-09-03T21:26:37;4.35;;;2.50;;
35795;SDS011;21916;52.428;13.302;2022-09-03T21:29:21;6.15;;;3.08;;
35795;SDS011;21916;52.428;13.302;2022-09-03T21:34:59;8.18;;;3.45;;
35795;SDS011;21916;52.428;13.302;2022-09-03T21:37:34;7.22;;;3.53;;
35795;SDS011;21916;52.428;13.302;2022-09-03T21:40:02;4.13;;;2.97;;
35795;SDS011;21916;52.428;13.302;2022-09-03T21:45:05;4.13;;;2.70;;
35795;SDS011;21916;52.428;13.302;2022-09-03T21:47:43;4.78;;;2.75;;
35795;SDS011;21916;52.428;13.302;2022-09-03T21:50:21;7.43;;;3.08;;
35795;SDS011;21916;52.428;13.302;2022-09-03T21:53:15;4.82;;;1.98;;
35795;SDS011;21916;52.428;13.302;2022-09-03T21:55:49;4.18;;;2.30;;
35795;SDS011;21916;52.428;13.302;2022-09-03T22:04:48;5.65;;;2.47;;
35795;SDS011;21916;52.428;13.302;2022-09-03T22:16:00;4.43;;;2.05;;
35795;SDS011;21916;52.428;13.302;2022-09-03T22:18:37;4.80;;;2.13;;
35795;SDS011;21916;52.428;13.302;2022-09-03T22:21:12;10.73;;;4.40;;
35795;SDS011;21916;52.428;13.302;2022-09-03T22:32:19;3.28;;;1.95;;